Redwood Estates, California
Current Conditions -  °F | °C
As of 8:19 AM on Saturday 25 Oct 2014 (Local Time) from KSJC Reporting Station
Light Rain Light Rain  
Wind Chill: 57°   Ceiling: 2200
Heat Index: 57°   Visibility: 4mi
Dew Point: 57°   Wind: 7mph
Humidity: 100%   Direction: 90°E
Pressure: 30.02"   Gusts: NA
Location:  37.16°N, 121.99°W
Report Text: KSJC 251519Z 09006KT 4SM -RA BR SCT006 BKN022 BKN055 14/14 A3002 RMK AO2 P0002
Loading
Personal Weather Stations






























Interactive Weather Map
Tropical Storm Tracking
New forecast layout! Learn more

10-Day Weather Forecast

Advertisements
Track Severe Weather on mobile